sensor_id;sensor_type;location;lat;lon;timestamp;temperature;humidity
1812;DHT22;904;47.814;11.134;2022-10-16T00:00:43;13.60;99.90
1812;DHT22;904;47.814;11.134;2022-10-16T00:03:10;13.60;99.90
1812;DHT22;904;47.814;11.134;2022-10-16T00:05:39;13.60;99.90
1812;DHT22;904;47.814;11.134;2022-10-16T00:08:07;13.60;99.90
1812;DHT22;904;47.814;11.134;2022-10-16T00:10:34;13.60;99.90
1812;DHT22;904;47.814;11.134;2022-10-16T00:13:02;13.60;99.90
1812;DHT22;904;47.814;11.134;2022-10-16T00:15:33;13.50;99.90
1812;DHT22;904;47.814;11.134;2022-10-16T00:18:01;13.50;99.90
1812;DHT22;904;47.814;11.134;2022-10-16T00:20:28;13.40;99.90
1812;DHT22;904;47.814;11.134;2022-10-16T00:22:56;13.40;99.90
1812;DHT22;904;47.814;11.134;2022-10-16T00:25:24;13.30;99.90
1812;DHT22;904;47.814;11.134;2022-10-16T00:27:51;13.40;99.90
1812;DHT22;904;47.814;11.134;2022-10-16T00:30:17;13.30;99.90
1812;DHT22;904;47.814;11.134;2022-10-16T00:32:46;13.30;99.90
1812;DHT22;904;47.814;11.134;2022-10-16T00:35:13;13.30;99.90
1812;DHT22;904;47.814;11.134;2022-10-16T00:37:40;13.20;99.90
1812;DHT22;904;47.814;11.134;2022-10-16T00:40:08;13.20;99.90
1812;DHT22;904;47.814;11.134;2022-10-16T00:42:35;13.20;99.90
1812;DHT22;904;47.814;11.134;2022-10-16T00:45:03;13.20;99.90
1812;DHT22;904;47.814;11.134;2022-10-16T00:47:32;13.20;99.90
1812;DHT22;904;47.814;11.134;2022-10-16T00:50:06;13.30;99.90
1812;DHT22;904;47.814;11.134;2022-10-16T00:52:34;13.30;99.90
1812;DHT22;904;47.814;11.134;2022-10-16T00:55:02;13.30;99.90
1812;DHT22;904;47.814;11.134;2022-10-16T00:57:31;13.40;99.90
1812;DHT22;904;47.814;11.134;2022-10-16T00:59:58;13.40;99.90
1812;DHT22;904;47.814;11.134;2022-10-16T01:02:25;13.50;99.90
1812;DHT22;904;47.814;11.134;2022-10-16T01:04:53;13.50;99.90
1812;DHT22;904;47.814;11.134;2022-10-16T01:07:39;13.50;99.90
1812;DHT22;904;47.814;11.134;2022-10-16T01:10:17;13.50;99.90
1812;DHT22;904;47.814;11.134;2022-10-16T01:12:51;13.40;99.90
1812;DHT22;904;47.814;11.134;2022-10-16T01:15:26;13.40;99.90
1812;DHT22;904;47.814;11.134;2022-10-16T01:18:00;13.40;99.90
1812;DHT22;904;47.814;11.134;2022-10-16T01:20:30;13.40;99.90
1812;DHT22;904;47.814;11.134;2022-10-16T01:23:15;13.30;99.90
1812;DHT22;904;47.814;11.134;2022-10-16T01:26:02;13.20;99.90
1812;DHT22;904;47.814;11.134;2022-10-16T01:28:39;13.10;99.90
1812;DHT22;904;47.814;11.134;2022-10-16T01:31:07;13.10;99.90
1812;DHT22;904;47.814;11.134;2022-10-16T01:33:39;13.10;99.90
1812;DHT22;904;47.814;11.134;2022-10-16T01:36:11;13.00;99.90
1812;DHT22;904;47.814;11.134;2022-10-16T01:38:40;13.00;99.90
1812;DHT22;904;47.814;11.134;2022-10-16T01:41:10;12.90;99.90
1812;DHT22;904;47.814;11.134;2022-10-16T01:43:43;12.90;99.90
1812;DHT22;904;47.814;11.134;2022-10-16T01:46:13;12.80;99.70
1812;DHT22;904;47.814;11.134;2022-10-16T01:48:42;12.70;99.70
1812;DHT22;904;47.814;11.134;2022-10-16T01:51:11;12.70;99.90
1812;DHT22;904;47.814;11.134;2022-10-16T01:53:39;12.70;99.90
1812;DHT22;904;47.814;11.134;2022-10-16T01:56:09;12.60;99.90
1812;DHT22;904;47.814;11.134;2022-10-16T01:58:40;12.60;99.90
1812;DHT22;904;47.814;11.134;2022-10-16T02:01:11;12.60;99.90
1812;DHT22;904;47.814;11.134;2022-10-16T02:03:41;12.60;99.90
1812;DHT22;904;47.814;11.134;2022-10-16T02:06:09;12.60;99.90
1812;DHT22;904;47.814;11.134;2022-10-16T02:08:36;12.50;99.90
1812;DHT22;904;47.814;11.134;2022-10-16T02:11:06;12.50;99.90
1812;DHT22;904;47.814;11.134;2022-10-16T02:13:37;12.50;99.90
1812;DHT22;904;47.814;11.134;2022-10-16T02:16:07;12.60;99.90
1812;DHT22;904;47.814;11.134;2022-10-16T02:18:35;12.60;99.90
1812;DHT22;904;47.814;11.134;2022-10-16T02:21:09;12.60;99.90
1812;DHT22;904;47.814;11.134;2022-10-16T02:23:41;12.60;99.90
1812;DHT22;904;47.814;11.134;2022-10-16T02:26:15;12.60;99.90
1812;DHT22;904;47.814;11.134;2022-10-16T02:28:46;12.60;99.90
1812;DHT22;904;47.814;11.134;2022-10-16T02:31:19;12.70;99.90
1812;DHT22;904;47.814;11.134;2022-10-16T02:33:51;12.70;99.90
1812;DHT22;904;47.814;11.134;2022-10-16T02:36:19;12.70;99.90
1812;DHT22;904;47.814;11.134;2022-10-16T02:38:47;12.70;99.90
1812;DHT22;904;47.814;11.134;2022-10-16T02:41:14;12.70;99.90
1812;DHT22;904;47.814;11.134;2022-10-16T02:43:41;12.80;99.90
1812;DHT22;904;47.814;11.134;2022-10-16T02:46:08;12.80;99.90
1812;DHT22;904;47.814;11.134;2022-10-16T02:48:37;12.80;99.90
1812;DHT22;904;47.814;11.134;2022-10-16T02:51:05;12.80;99.90
1812;DHT22;904;47.814;11.134;2022-10-16T02:53:31;12.90;99.90
1812;DHT22;904;47.814;11.134;2022-10-16T02:55:58;12.90;99.90
1812;DHT22;904;47.814;11.134;2022-10-16T02:58:25;12.90;99.90
1812;DHT22;904;47.814;11.134;2022-10-16T03:00:52;12.90;99.90
1812;DHT22;904;47.814;11.134;2022-10-16T03:03:19;12.90;99.90
1812;DHT22;904;47.814;11.134;2022-10-16T03:05:48;12.90;99.90
1812;DHT22;904;47.814;11.134;2022-10-16T03:08:15;12.90;99.90
1812;DHT22;904;47.814;11.134;2022-10-16T03:10:41;12.90;99.90
1812;DHT22;904;47.814;11.134;2022-10-16T03:13:08;12.90;99.90
1812;DHT22;904;47.814;11.134;2022-10-16T03:15:35;12.90;99.90
1812;DHT22;904;47.814;11.134;2022-10-16T03:18:02;12.90;99.90
1812;DHT22;904;47.814;11.134;2022-10-16T03:20:29;12.90;99.90
1812;DHT22;904;47.814;11.134;2022-10-16T03:22:58;12.90;99.90
1812;DHT22;904;47.814;11.134;2022-10-16T03:25:25;12.90;99.90
1812;DHT22;904;47.814;11.134;2022-10-16T03:27:52;12.90;99.90
1812;DHT22;904;47.814;11.134;2022-10-16T03:30:19;12.90;99.90
1812;DHT22;904;47.814;11.134;2022-10-16T03:32:46;12.80;99.90
1812;DHT22;904;47.814;11.134;2022-10-16T03:35:13;12.70;99.90
1812;DHT22;904;47.814;11.134;2022-10-16T03:37:40;12.60;99.90
1812;DHT22;904;47.814;11.134;2022-10-16T03:40:09;12.60;99.90
1812;DHT22;904;47.814;11.134;2022-10-16T03:42:36;12.60;99.90
1812;DHT22;904;47.814;11.134;2022-10-16T03:45:04;12.50;99.90
1812;DHT22;904;47.814;11.134;2022-10-16T03:47:31;12.50;99.90
1812;DHT22;904;47.814;11.134;2022-10-16T03:49:59;12.50;99.90
1812;DHT22;904;47.814;11.134;2022-10-16T03:52:26;12.50;99.90
1812;DHT22;904;47.814;11.134;2022-10-16T03:54:53;12.60;99.90
1812;DHT22;904;47.814;11.134;2022-10-16T03:57:22;12.60;99.90
1812;DHT22;904;47.814;11.134;2022-10-16T03:59:49;12.60;99.90
1812;DHT22;904;47.814;11.134;2022-10-16T04:02:16;12.60;99.90
1812;DHT22;904;47.814;11.134;2022-10-16T04:04:43;12.60;99.90
1812;DHT22;904;47.814;11.134;2022-10-16T04:07:10;12.60;99.90
1812;DHT22;904;47.814;11.134;2022-10-16T04:09:37;12.60;99.90
1812;DHT22;904;47.814;11.134;2022-10-16T04:12:04;12.70;99.90
1812;DHT22;904;47.814;11.134;2022-10-16T04:14:32;12.60;99.90
1812;DHT22;904;47.814;11.134;2022-10-16T04:16:59;12.70;99.90
1812;DHT22;904;47.814;11.134;2022-10-16T04:19:26;12.70;99.90
1812;DHT22;904;47.814;11.134;2022-10-16T04:21:53;12.60;99.90
1812;DHT22;904;47.814;11.134;2022-10-16T04:24:20;12.60;99.90
1812;DHT22;904;47.814;11.134;2022-10-16T04:26:47;12.50;99.90
1812;DHT22;904;47.814;11.134;2022-10-16T04:29:14;12.50;99.90
1812;DHT22;904;47.814;11.134;2022-10-16T04:31:42;12.30;99.90
1812;DHT22;904;47.814;11.134;2022-10-16T04:34:09;12.30;99.90
1812;DHT22;904;47.814;11.134;2022-10-16T04:36:36;12.30;99.90
1812;DHT22;904;47.814;11.134;2022-10-16T04:39:03;12.30;99.90
1812;DHT22;904;47.814;11.134;2022-10-16T04:41:30;12.40;99.90
1812;DHT22;904;47.814;11.134;2022-10-16T04:43:57;12.30;99.90
1812;DHT22;904;47.814;11.134;2022-10-16T04:46:24;12.30;99.90
1812;DHT22;904;47.814;11.134;2022-10-16T04:48:52;12.30;99.90
1812;DHT22;904;47.814;11.134;2022-10-16T04:51:19;12.40;99.90
1812;DHT22;904;47.814;11.134;2022-10-16T04:53:46;12.40;99.90
1812;DHT22;904;47.814;11.134;2022-10-16T04:56:13;12.50;99.90
1812;DHT22;904;47.814;11.134;2022-10-16T04:58:41;12.50;99.90
1812;DHT22;904;47.814;11.134;2022-10-16T05:01:08;12.50;99.90
1812;DHT22;904;47.814;11.134;2022-10-16T05:03:35;12.50;99.90
1812;DHT22;904;47.814;11.134;2022-10-16T05:06:05;12.60;99.90
1812;DHT22;904;47.814;11.134;2022-10-16T05:08:32;12.60;99.90
1812;DHT22;904;47.814;11.134;2022-10-16T05:10:59;12.60;99.90
1812;DHT22;904;47.814;11.134;2022-10-16T05:13:27;12.70;99.90
1812;DHT22;904;47.814;11.134;2022-10-16T05:15:54;12.70;99.90
1812;DHT22;904;47.814;11.134;2022-10-16T05:18:20;12.70;99.90
1812;DHT22;904;47.814;11.134;2022-10-16T05:20:47;12.80;99.90
1812;DHT22;904;47.814;11.134;2022-10-16T05:23:16;12.80;99.90
1812;DHT22;904;47.814;11.134;2022-10-16T05:25:43;12.70;99.90
1812;DHT22;904;47.814;11.134;2022-10-16T05:28:10;12.70;99.90
1812;DHT22;904;47.814;11.134;2022-10-16T05:30:37;12.70;99.90
1812;DHT22;904;47.814;11.134;2022-10-16T05:33:05;12.60;99.90
1812;DHT22;904;47.814;11.134;2022-10-16T05:35:32;12.50;99.90
1812;DHT22;904;47.814;11.134;2022-10-16T05:38:00;12.50;99.90
1812;DHT22;904;47.814;11.134;2022-10-16T05:40:28;12.50;99.90
1812;DHT22;904;47.814;11.134;2022-10-16T05:42:55;12.50;99.90
1812;DHT22;904;47.814;11.134;2022-10-16T05:45:22;12.40;99.90
1812;DHT22;904;47.814;11.134;2022-10-16T05:47:49;12.40;99.90
1812;DHT22;904;47.814;11.134;2022-10-16T05:50:17;12.40;99.90
1812;DHT22;904;47.814;11.134;2022-10-16T05:52:43;12.50;99.90
1812;DHT22;904;47.814;11.134;2022-10-16T05:55:10;12.50;99.90
1812;DHT22;904;47.814;11.134;2022-10-16T05:57:39;12.50;99.90
1812;DHT22;904;47.814;11.134;2022-10-16T06:00:07;12.50;99.90
1812;DHT22;904;47.814;11.134;2022-10-16T06:02:34;12.50;99.90
1812;DHT22;904;47.814;11.134;2022-10-16T06:05:01;12.50;99.90
1812;DHT22;904;47.814;11.134;2022-10-16T06:07:28;12.50;99.90
1812;DHT22;904;47.814;11.134;2022-10-16T06:09:55;12.50;99.90
1812;DHT22;904;47.814;11.134;2022-10-16T06:12:22;12.70;99.90
1812;DHT22;904;47.814;11.134;2022-10-16T06:14:50;12.70;99.90
1812;DHT22;904;47.814;11.134;2022-10-16T06:17:17;12.90;99.90
1812;DHT22;904;47.814;11.134;2022-10-16T06:19:44;13.00;99.90
1812;DHT22;904;47.814;11.134;2022-10-16T06:22:11;13.00;99.90
1812;DHT22;904;47.814;11.134;2022-10-16T06:24:38;13.00;99.90
1812;DHT22;904;47.814;11.134;2022-10-16T06:27:05;13.20;99.90
1812;DHT22;904;47.814;11.134;2022-10-16T06:29:32;13.40;99.90
1812;DHT22;904;47.814;11.134;2022-10-16T06:32:00;13.80;99.90
1812;DHT22;904;47.814;11.134;2022-10-16T06:34:27;14.00;99.90
1812;DHT22;904;47.814;11.134;2022-10-16T06:36:54;14.20;99.90
1812;DHT22;904;47.814;11.134;2022-10-16T06:39:21;14.60;99.90
1812;DHT22;904;47.814;11.134;2022-10-16T06:41:48;14.70;99.90
1812;DHT22;904;47.814;11.134;2022-10-16T06:44:15;14.90;99.90
1812;DHT22;904;47.814;11.134;2022-10-16T06:46:42;15.50;99.90
1812;DHT22;904;47.814;11.134;2022-10-16T06:49:10;16.00;98.50
1812;DHT22;904;47.814;11.134;2022-10-16T06:51:42;16.30;98.10
1812;DHT22;904;47.814;11.134;2022-10-16T06:54:09;16.50;98.20
1812;DHT22;904;47.814;11.134;2022-10-16T06:56:36;17.10;97.60
1812;DHT22;904;47.814;11.134;2022-10-16T06:59:03;17.90;97.20
1812;DHT22;904;47.814;11.134;2022-10-16T07:01:30;18.50;95.30
1812;DHT22;904;47.814;11.134;2022-10-16T07:03:57;18.60;94.10
1812;DHT22;904;47.814;11.134;2022-10-16T07:06:27;19.30;93.00
1812;DHT22;904;47.814;11.134;2022-10-16T07:08:54;19.30;90.90
1812;DHT22;904;47.814;11.134;2022-10-16T07:11:22;18.90;90.30
1812;DHT22;904;47.814;11.134;2022-10-16T07:13:50;18.50;91.40
1812;DHT22;904;47.814;11.134;2022-10-16T07:16:18;18.30;91.90
1812;DHT22;904;47.814;11.134;2022-10-16T07:18:46;18.20;91.30
1812;DHT22;904;47.814;11.134;2022-10-16T07:21:16;18.00;91.40
1812;DHT22;904;47.814;11.134;2022-10-16T07:23:44;17.90;92.10
1812;DHT22;904;47.814;11.134;2022-10-16T07:26:12;18.00;92.20
1812;DHT22;904;47.814;11.134;2022-10-16T07:28:39;18.10;91.60
1812;DHT22;904;47.814;11.134;2022-10-16T07:31:07;18.10;91.90
1812;DHT22;904;47.814;11.134;2022-10-16T07:33:37;18.60;92.10
1812;DHT22;904;47.814;11.134;2022-10-16T07:36:05;20.40;91.60
1812;DHT22;904;47.814;11.134;2022-10-16T07:38:32;22.40;85.60
1812;DHT22;904;47.814;11.134;2022-10-16T07:41:03;24.40;75.90
1812;DHT22;904;47.814;11.134;2022-10-16T07:43:30;26.20;64.80
1812;DHT22;904;47.814;11.134;2022-10-16T07:45:58;27.80;57.40
1812;DHT22;904;47.814;11.134;2022-10-16T07:48:27;29.00;53.90
1812;DHT22;904;47.814;11.134;2022-10-16T07:50:57;30.30;48.50
1812;DHT22;904;47.814;11.134;2022-10-16T07:53:25;31.20;45.20
1812;DHT22;904;47.814;11.134;2022-10-16T07:55:52;32.10;41.50
1812;DHT22;904;47.814;11.134;2022-10-16T07:58:21;33.10;39.70
1812;DHT22;904;47.814;11.134;2022-10-16T08:00:47;34.00;36.10
1812;DHT22;904;47.814;11.134;2022-10-16T08:03:14;34.70;34.90
1812;DHT22;904;47.814;11.134;2022-10-16T08:05:41;35.50;34.30
1812;DHT22;904;47.814;11.134;2022-10-16T08:08:12;36.50;33.00
1812;DHT22;904;47.814;11.134;2022-10-16T08:10:39;37.40;30.40
1812;DHT22;904;47.814;11.134;2022-10-16T08:13:06;37.70;29.30
1812;DHT22;904;47.814;11.134;2022-10-16T08:15:35;38.30;28.70
1812;DHT22;904;47.814;11.134;2022-10-16T08:18:04;39.10;27.90
1812;DHT22;904;47.814;11.134;2022-10-16T08:20:33;40.10;26.70
1812;DHT22;904;47.814;11.134;2022-10-16T08:23:00;41.10;25.60
1812;DHT22;904;47.814;11.134;2022-10-16T08:25:28;41.70;25.10
1812;DHT22;904;47.814;11.134;2022-10-16T08:27:55;42.50;23.80
1812;DHT22;904;47.814;11.134;2022-10-16T08:30:23;43.20;23.30
1812;DHT22;904;47.814;11.134;2022-10-16T08:32:52;43.80;22.40
1812;DHT22;904;47.814;11.134;2022-10-16T08:35:19;44.50;21.30
1812;DHT22;904;47.814;11.134;2022-10-16T08:37:46;45.00;21.20
1812;DHT22;904;47.814;11.134;2022-10-16T08:40:18;45.50;19.50
1812;DHT22;904;47.814;11.134;2022-10-16T08:43:21;45.90;19.80
1812;DHT22;904;47.814;11.134;2022-10-16T08:46:04;46.70;19.90
1812;DHT22;904;47.814;11.134;2022-10-16T08:48:42;47.50;18.90
1812;DHT22;904;47.814;11.134;2022-10-16T08:51:16;48.20;18.30
1812;DHT22;904;47.814;11.134;2022-10-16T08:53:49;48.50;18.10
1812;DHT22;904;47.814;11.134;2022-10-16T08:56:17;49.00;17.80
1812;DHT22;904;47.814;11.134;2022-10-16T08:58:45;49.60;17.60
1812;DHT22;904;47.814;11.134;2022-10-16T09:01:14;50.00;16.70
1812;DHT22;904;47.814;11.134;2022-10-16T09:04:01;50.40;16.00
1812;DHT22;904;47.814;11.134;2022-10-16T09:06:49;50.80;15.50
1812;DHT22;904;47.814;11.134;2022-10-16T09:09:30;51.00;14.80
1812;DHT22;904;47.814;11.134;2022-10-16T09:12:03;51.00;14.20
1812;DHT22;904;47.814;11.134;2022-10-16T09:14:43;51.10;15.10
1812;DHT22;904;47.814;11.134;2022-10-16T09:17:22;51.60;13.50
1812;DHT22;904;47.814;11.134;2022-10-16T09:19:55;51.80;13.60
1812;DHT22;904;47.814;11.134;2022-10-16T09:22:27;52.00;13.00
1812;DHT22;904;47.814;11.134;2022-10-16T09:24:55;52.10;13.80
1812;DHT22;904;47.814;11.134;2022-10-16T09:27:26;52.20;13.60
1812;DHT22;904;47.814;11.134;2022-10-16T09:29:53;52.60;13.40
1812;DHT22;904;47.814;11.134;2022-10-16T09:32:22;52.90;13.40
1812;DHT22;904;47.814;11.134;2022-10-16T09:34:54;53.30;12.60
1812;DHT22;904;47.814;11.134;2022-10-16T09:37:24;53.40;12.50
1812;DHT22;904;47.814;11.134;2022-10-16T09:39:53;53.60;13.00
1812;DHT22;904;47.814;11.134;2022-10-16T09:42:22;53.70;11.80
1812;DHT22;904;47.814;11.134;2022-10-16T09:44:51;53.80;12.00
1812;DHT22;904;47.814;11.134;2022-10-16T09:47:21;53.90;11.90
1812;DHT22;904;47.814;11.134;2022-10-16T09:49:55;53.90;11.70
1812;DHT22;904;47.814;11.134;2022-10-16T09:52:25;53.50;11.40
1812;DHT22;904;47.814;11.134;2022-10-16T10:14:47;53.70;11.70
1812;DHT22;904;47.814;11.134;2022-10-16T10:17:18;55.60;10.60
1812;DHT22;904;47.814;11.134;2022-10-16T10:19:48;56.10;10.10
1812;DHT22;904;47.814;11.134;2022-10-16T10:22:30;55.80;10.30
1812;DHT22;904;47.814;11.134;2022-10-16T10:25:01;54.60;9.70
1812;DHT22;904;47.814;11.134;2022-10-16T10:27:39;53.20;10.50
1812;DHT22;904;47.814;11.134;2022-10-16T10:30:17;52.30;10.90
1812;DHT22;904;47.814;11.134;2022-10-16T10:32:53;52.10;10.90
1812;DHT22;904;47.814;11.134;2022-10-16T10:35:30;51.90;11.20
1812;DHT22;904;47.814;11.134;2022-10-16T10:38:07;51.10;12.00
1812;DHT22;904;47.814;11.134;2022-10-16T10:40:45;50.70;11.30
1812;DHT22;904;47.814;11.134;2022-10-16T10:43:28;49.20;10.80
1812;DHT22;904;47.814;11.134;2022-10-16T10:46:01;46.80;11.60
1812;DHT22;904;47.814;11.134;2022-10-16T10:48:48;45.50;12.70
1812;DHT22;904;47.814;11.134;2022-10-16T10:51:22;44.40;14.10
1812;DHT22;904;47.814;11.134;2022-10-16T10:53:59;45.10;14.90
1812;DHT22;904;47.814;11.134;2022-10-16T10:56:41;47.20;13.70
1812;DHT22;904;47.814;11.134;2022-10-16T11:01:50;50.70;12.40
1812;DHT22;904;47.814;11.134;2022-10-16T11:04:43;52.30;10.90
1812;DHT22;904;47.814;11.134;2022-10-16T11:07:18;53.30;10.10
1812;DHT22;904;47.814;11.134;2022-10-16T11:09:51;53.80;9.50
1812;DHT22;904;47.814;11.134;2022-10-16T11:12:21;54.30;10.00
1812;DHT22;904;47.814;11.134;2022-10-16T11:14:57;54.80;8.90
1812;DHT22;904;47.814;11.134;2022-10-16T11:17:27;55.30;9.50
1812;DHT22;904;47.814;11.134;2022-10-16T11:19:58;56.00;8.80
1812;DHT22;904;47.814;11.134;2022-10-16T11:22:30;56.00;8.20
1812;DHT22;904;47.814;11.134;2022-10-16T11:25:06;55.80;9.30
1812;DHT22;904;47.814;11.134;2022-10-16T11:27:41;56.10;9.00
1812;DHT22;904;47.814;11.134;2022-10-16T11:30:15;56.20;8.40
1812;DHT22;904;47.814;11.134;2022-10-16T11:32:52;56.30;8.70
1812;DHT22;904;47.814;11.134;2022-10-16T11:35:24;56.70;8.40
1812;DHT22;904;47.814;11.134;2022-10-16T11:37:52;57.00;8.50
1812;DHT22;904;47.814;11.134;2022-10-16T11:40:24;56.80;8.80
1812;DHT22;904;47.814;11.134;2022-10-16T11:42:55;56.50;8.60
1812;DHT22;904;47.814;11.134;2022-10-16T11:45:33;56.40;8.50
1812;DHT22;904;47.814;11.134;2022-10-16T11:48:07;56.60;8.80
1812;DHT22;904;47.814;11.134;2022-10-16T11:50:42;56.50;8.20
1812;DHT22;904;47.814;11.134;2022-10-16T11:53:16;56.40;8.40
1812;DHT22;904;47.814;11.134;2022-10-16T11:55:46;56.40;8.70
1812;DHT22;904;47.814;11.134;2022-10-16T11:58:22;56.50;9.00
1812;DHT22;904;47.814;11.134;2022-10-16T12:00:55;56.70;8.40
1812;DHT22;904;47.814;11.134;2022-10-16T12:03:28;56.90;7.80
1812;DHT22;904;47.814;11.134;2022-10-16T12:06:11;56.90;7.50
1812;DHT22;904;47.814;11.134;2022-10-16T12:08:40;56.80;7.20
1812;DHT22;904;47.814;11.134;2022-10-16T12:11:24;56.80;7.10
1812;DHT22;904;47.814;11.134;2022-10-16T12:14:20;56.80;7.20
1812;DHT22;904;47.814;11.134;2022-10-16T12:16:52;56.90;7.10
1812;DHT22;904;47.814;11.134;2022-10-16T12:19:21;56.80;7.00
1812;DHT22;904;47.814;11.134;2022-10-16T12:21:49;56.70;7.20
1812;DHT22;904;47.814;11.134;2022-10-16T12:24:26;56.60;7.10
1812;DHT22;904;47.814;11.134;2022-10-16T12:26:56;56.40;7.10
1812;DHT22;904;47.814;11.134;2022-10-16T12:29:34;56.20;6.80
1812;DHT22;904;47.814;11.134;2022-10-16T12:32:05;56.00;7.20
1812;DHT22;904;47.814;11.134;2022-10-16T12:34:38;55.30;7.40
1812;DHT22;904;47.814;11.134;2022-10-16T12:37:12;54.80;7.70
1812;DHT22;904;47.814;11.134;2022-10-16T12:39:39;54.40;7.40
1812;DHT22;904;47.814;11.134;2022-10-16T12:42:22;54.20;8.10
1812;DHT22;904;47.814;11.134;2022-10-16T12:44:50;54.10;7.70
1812;DHT22;904;47.814;11.134;2022-10-16T12:47:22;53.90;7.70
1812;DHT22;904;47.814;11.134;2022-10-16T12:49:51;53.60;7.60
1812;DHT22;904;47.814;11.134;2022-10-16T12:52:26;53.20;8.20
1812;DHT22;904;47.814;11.134;2022-10-16T12:54:56;52.80;7.10
1812;DHT22;904;47.814;11.134;2022-10-16T12:57:40;52.40;7.70
1812;DHT22;904;47.814;11.134;2022-10-16T13:00:17;52.10;8.40
1812;DHT22;904;47.814;11.134;2022-10-16T13:03:06;51.70;8.90
1812;DHT22;904;47.814;11.134;2022-10-16T13:05:54;51.10;9.10
1812;DHT22;904;47.814;11.134;2022-10-16T13:08:42;50.30;9.30
1812;DHT22;904;47.814;11.134;2022-10-16T13:11:20;49.40;9.90
1812;DHT22;904;47.814;11.134;2022-10-16T13:14:14;48.40;10.20
1812;DHT22;904;47.814;11.134;2022-10-16T13:16:53;47.20;10.70
1812;DHT22;904;47.814;11.134;2022-10-16T13:19:29;45.20;11.10
1812;DHT22;904;47.814;11.134;2022-10-16T13:22:04;43.50;12.50
1812;DHT22;904;47.814;11.134;2022-10-16T13:24:46;42.10;13.70
1812;DHT22;904;47.814;11.134;2022-10-16T13:27:23;40.90;14.30
1812;DHT22;904;47.814;11.134;2022-10-16T13:30:00;39.80;14.80
1812;DHT22;904;47.814;11.134;2022-10-16T13:32:28;38.80;16.00
1812;DHT22;904;47.814;11.134;2022-10-16T13:34:55;37.70;16.80
1812;DHT22;904;47.814;11.134;2022-10-16T13:37:24;36.60;17.40
1812;DHT22;904;47.814;11.134;2022-10-16T13:40:05;35.50;19.00
1812;DHT22;904;47.814;11.134;2022-10-16T13:42:36;34.80;20.00
1812;DHT22;904;47.814;11.134;2022-10-16T13:45:16;34.20;20.90
1812;DHT22;904;47.814;11.134;2022-10-16T13:47:44;33.60;21.40
1812;DHT22;904;47.814;11.134;2022-10-16T13:50:12;33.20;21.00
1812;DHT22;904;47.814;11.134;2022-10-16T13:52:40;32.70;21.80
1812;DHT22;904;47.814;11.134;2022-10-16T13:55:11;32.00;23.30
1812;DHT22;904;47.814;11.134;2022-10-16T13:57:39;31.60;23.90
1812;DHT22;904;47.814;11.134;2022-10-16T14:00:20;31.10;24.50
1812;DHT22;904;47.814;11.134;2022-10-16T14:02:53;30.70;25.70
1812;DHT22;904;47.814;11.134;2022-10-16T14:05:22;30.30;25.10
1812;DHT22;904;47.814;11.134;2022-10-16T14:07:50;29.90;26.60
1812;DHT22;904;47.814;11.134;2022-10-16T14:10:23;29.60;26.60
1812;DHT22;904;47.814;11.134;2022-10-16T14:12:56;29.20;27.10
1812;DHT22;904;47.814;11.134;2022-10-16T14:15:25;28.90;27.40
1812;DHT22;904;47.814;11.134;2022-10-16T14:17:53;28.70;27.20
1812;DHT22;904;47.814;11.134;2022-10-16T14:20:24;28.40;27.40
1812;DHT22;904;47.814;11.134;2022-10-16T14:23:00;28.10;28.30
1812;DHT22;904;47.814;11.134;2022-10-16T14:25:29;27.90;28.70
1812;DHT22;904;47.814;11.134;2022-10-16T14:27:59;27.60;29.30
1812;DHT22;904;47.814;11.134;2022-10-16T14:30:32;27.50;29.40
1812;DHT22;904;47.814;11.134;2022-10-16T14:33:00;27.30;29.50
1812;DHT22;904;47.814;11.134;2022-10-16T14:35:30;27.10;30.00
1812;DHT22;904;47.814;11.134;2022-10-16T14:37:58;27.00;30.30
1812;DHT22;904;47.814;11.134;2022-10-16T14:40:28;26.80;31.00
1812;DHT22;904;47.814;11.134;2022-10-16T14:42:56;26.70;31.40
1812;DHT22;904;47.814;11.134;2022-10-16T14:45:27;26.60;32.00
1812;DHT22;904;47.814;11.134;2022-10-16T14:47:57;26.40;32.10
1812;DHT22;904;47.814;11.134;2022-10-16T14:50:24;26.30;32.40
1812;DHT22;904;47.814;11.134;2022-10-16T14:52:52;26.10;32.90
1812;DHT22;904;47.814;11.134;2022-10-16T14:55:19;26.00;33.20
1812;DHT22;904;47.814;11.134;2022-10-16T14:57:47;25.90;33.60
1812;DHT22;904;47.814;11.134;2022-10-16T15:00:19;25.80;33.60
1812;DHT22;904;47.814;11.134;2022-10-16T15:02:48;25.70;34.20
1812;DHT22;904;47.814;11.134;2022-10-16T15:05:21;25.60;33.70
1812;DHT22;904;47.814;11.134;2022-10-16T15:07:49;25.50;33.90
1812;DHT22;904;47.814;11.134;2022-10-16T15:10:17;25.40;34.90
1812;DHT22;904;47.814;11.134;2022-10-16T15:12:45;25.30;34.60
1812;DHT22;904;47.814;11.134;2022-10-16T15:15:24;25.20;35.60
1812;DHT22;904;47.814;11.134;2022-10-16T15:17:53;25.10;35.80
1812;DHT22;904;47.814;11.134;2022-10-16T15:20:24;25.10;35.70
1812;DHT22;904;47.814;11.134;2022-10-16T15:22:52;24.90;36.10
1812;DHT22;904;47.814;11.134;2022-10-16T15:25:33;24.90;35.70
1812;DHT22;904;47.814;11.134;2022-10-16T15:28:02;24.80;36.20
1812;DHT22;904;47.814;11.134;2022-10-16T15:30:30;24.70;36.60
1812;DHT22;904;47.814;11.134;2022-10-16T15:32:57;24.60;36.50
1812;DHT22;904;47.814;11.134;2022-10-16T15:35:26;24.60;37.60
1812;DHT22;904;47.814;11.134;2022-10-16T15:37:57;24.50;37.30
1812;DHT22;904;47.814;11.134;2022-10-16T15:40:24;24.40;38.20
1812;DHT22;904;47.814;11.134;2022-10-16T15:42:51;24.20;41.70
1812;DHT22;904;47.814;11.134;2022-10-16T15:45:19;24.10;41.50
1812;DHT22;904;47.814;11.134;2022-10-16T15:47:46;24.00;40.60
1812;DHT22;904;47.814;11.134;2022-10-16T15:50:15;24.00;40.80
1812;DHT22;904;47.814;11.134;2022-10-16T15:52:44;23.90;40.70
1812;DHT22;904;47.814;11.134;2022-10-16T15:55:13;23.90;41.20
1812;DHT22;904;47.814;11.134;2022-10-16T15:57:41;23.80;41.10
1812;DHT22;904;47.814;11.134;2022-10-16T16:00:11;23.80;41.20
1812;DHT22;904;47.814;11.134;2022-10-16T16:02:38;23.70;41.60
1812;DHT22;904;47.814;11.134;2022-10-16T16:05:07;23.60;41.40
1812;DHT22;904;47.814;11.134;2022-10-16T16:07:35;23.50;42.20
1812;DHT22;904;47.814;11.134;2022-10-16T16:10:06;23.40;44.00
1812;DHT22;904;47.814;11.134;2022-10-16T16:12:34;23.30;43.70
1812;DHT22;904;47.814;11.134;2022-10-16T16:15:03;23.20;44.00
1812;DHT22;904;47.814;11.134;2022-10-16T16:17:30;23.10;44.40
1812;DHT22;904;47.814;11.134;2022-10-16T16:19:57;23.00;45.20
1812;DHT22;904;47.814;11.134;2022-10-16T16:22:25;22.90;45.90
1812;DHT22;904;47.814;11.134;2022-10-16T16:24:52;22.80;47.20
1812;DHT22;904;47.814;11.134;2022-10-16T16:27:20;22.70;47.40
1812;DHT22;904;47.814;11.134;2022-10-16T16:29:50;22.50;48.60
1812;DHT22;904;47.814;11.134;2022-10-16T16:32:17;22.40;49.10
1812;DHT22;904;47.814;11.134;2022-10-16T16:34:45;22.20;49.90
1812;DHT22;904;47.814;11.134;2022-10-16T16:37:12;22.10;50.20
1812;DHT22;904;47.814;11.134;2022-10-16T16:39:39;22.00;50.50
1812;DHT22;904;47.814;11.134;2022-10-16T16:42:07;21.90;52.00
1812;DHT22;904;47.814;11.134;2022-10-16T16:44:37;21.70;53.30
1812;DHT22;904;47.814;11.134;2022-10-16T16:47:05;21.60;52.70